sensor_id;sensor_type;location;lat;lon;timestamp;P1;durP1;ratioP1;P2;durP2;ratioP2
72117;SDS011;59992;47.490;8.736;2023-05-23T00:02:00;10.70;;;6.70;;
72117;SDS011;59992;47.490;8.736;2023-05-23T00:04:54;10.00;;;6.30;;
72117;SDS011;59992;47.490;8.736;2023-05-23T00:07:45;10.80;;;6.50;;
72117;SDS011;59992;47.490;8.736;2023-05-23T00:10:35;8.70;;;5.60;;
72117;SDS011;59992;47.490;8.736;2023-05-23T00:13:25;9.40;;;6.10;;
72117;SDS011;59992;47.490;8.736;2023-05-23T00:16:15;9.60;;;6.60;;
72117;SDS011;59992;47.490;8.736;2023-05-23T00:19:06;10.70;;;6.80;;
72117;SDS011;59992;47.490;8.736;2023-05-23T00:21:56;9.80;;;6.80;;
72117;SDS011;59992;47.490;8.736;2023-05-23T00:24:46;11.20;;;6.70;;
72117;SDS011;59992;47.490;8.736;2023-05-23T00:27:36;11.10;;;7.40;;
72117;SDS011;59992;47.490;8.736;2023-05-23T00:30:27;12.10;;;7.50;;
72117;SDS011;59992;47.490;8.736;2023-05-23T00:33:18;13.00;;;7.50;;
72117;SDS011;59992;47.490;8.736;2023-05-23T00:36:08;11.70;;;7.30;;
72117;SDS011;59992;47.490;8.736;2023-05-23T00:38:59;10.90;;;7.60;;
72117;SDS011;59992;47.490;8.736;2023-05-23T00:41:51;12.60;;;7.60;;
72117;SDS011;59992;47.490;8.736;2023-05-23T00:44:41;10.60;;;7.40;;
72117;SDS011;59992;47.490;8.736;2023-05-23T00:47:31;12.60;;;7.20;;
72117;SDS011;59992;47.490;8.736;2023-05-23T00:50:21;11.10;;;6.90;;
72117;SDS011;59992;47.490;8.736;2023-05-23T00:53:16;10.10;;;7.10;;
72117;SDS011;59992;47.490;8.736;2023-05-23T00:56:06;11.30;;;7.30;;
72117;SDS011;59992;47.490;8.736;2023-05-23T00:58:59;13.50;;;7.50;;
72117;SDS011;59992;47.490;8.736;2023-05-23T01:01:50;12.10;;;7.20;;
72117;SDS011;59992;47.490;8.736;2023-05-23T01:04:42;12.40;;;7.40;;
72117;SDS011;59992;47.490;8.736;2023-05-23T01:07:33;12.20;;;7.80;;
72117;SDS011;59992;47.490;8.736;2023-05-23T01:10:24;11.80;;;7.60;;
72117;SDS011;59992;47.490;8.736;2023-05-23T01:13:19;10.90;;;7.50;;
72117;SDS011;59992;47.490;8.736;2023-05-23T01:16:15;10.90;;;7.00;;
72117;SDS011;59992;47.490;8.736;2023-05-23T01:19:16;12.80;;;8.20;;
72117;SDS011;59992;47.490;8.736;2023-05-23T01:22:40;11.90;;;7.70;;
72117;SDS011;59992;47.490;8.736;2023-05-23T01:25:57;10.70;;;7.40;;
72117;SDS011;59992;47.490;8.736;2023-05-23T01:29:00;11.90;;;7.50;;
72117;SDS011;59992;47.490;8.736;2023-05-23T01:31:57;12.20;;;7.10;;
72117;SDS011;59992;47.490;8.736;2023-05-23T01:34:48;12.40;;;7.80;;
72117;SDS011;59992;47.490;8.736;2023-05-23T01:37:41;12.20;;;7.80;;
72117;SDS011;59992;47.490;8.736;2023-05-23T01:40:33;11.00;;;7.50;;
72117;SDS011;59992;47.490;8.736;2023-05-23T01:43:24;11.40;;;8.00;;
72117;SDS011;59992;47.490;8.736;2023-05-23T01:46:14;12.60;;;8.40;;
72117;SDS011;59992;47.490;8.736;2023-05-23T01:49:06;12.40;;;7.90;;
72117;SDS011;59992;47.490;8.736;2023-05-23T01:51:59;14.80;;;8.30;;
72117;SDS011;59992;47.490;8.736;2023-05-23T01:54:50;12.50;;;8.20;;
72117;SDS011;59992;47.490;8.736;2023-05-23T01:57:42;11.50;;;7.30;;
72117;SDS011;59992;47.490;8.736;2023-05-23T02:00:35;10.60;;;7.30;;
72117;SDS011;59992;47.490;8.736;2023-05-23T02:03:25;13.90;;;8.20;;
72117;SDS011;59992;47.490;8.736;2023-05-23T02:06:15;13.70;;;8.30;;
72117;SDS011;59992;47.490;8.736;2023-05-23T02:09:06;13.00;;;8.10;;
72117;SDS011;59992;47.490;8.736;2023-05-23T02:11:56;14.10;;;8.90;;
72117;SDS011;59992;47.490;8.736;2023-05-23T02:14:46;12.70;;;8.10;;
72117;SDS011;59992;47.490;8.736;2023-05-23T02:17:38;11.60;;;7.50;;
72117;SDS011;59992;47.490;8.736;2023-05-23T02:20:29;11.40;;;6.70;;
72117;SDS011;59992;47.490;8.736;2023-05-23T02:23:19;12.30;;;8.40;;
72117;SDS011;59992;47.490;8.736;2023-05-23T02:26:09;14.30;;;8.40;;
72117;SDS011;59992;47.490;8.736;2023-05-23T02:28:59;13.10;;;7.60;;
72117;SDS011;59992;47.490;8.736;2023-05-23T02:31:49;9.90;;;6.90;;
72117;SDS011;59992;47.490;8.736;2023-05-23T02:34:40;12.00;;;7.40;;
72117;SDS011;59992;47.490;8.736;2023-05-23T02:37:33;12.90;;;8.20;;
72117;SDS011;59992;47.490;8.736;2023-05-23T02:40:23;12.70;;;8.40;;
72117;SDS011;59992;47.490;8.736;2023-05-23T02:43:13;12.20;;;8.10;;
72117;SDS011;59992;47.490;8.736;2023-05-23T02:46:03;12.00;;;8.20;;
72117;SDS011;59992;47.490;8.736;2023-05-23T02:48:53;13.90;;;8.20;;
72117;SDS011;59992;47.490;8.736;2023-05-23T02:51:44;12.10;;;8.40;;
72117;SDS011;59992;47.490;8.736;2023-05-23T02:54:34;14.80;;;8.80;;
72117;SDS011;59992;47.490;8.736;2023-05-23T02:57:24;12.80;;;8.30;;
72117;SDS011;59992;47.490;8.736;2023-05-23T03:00:15;12.80;;;8.90;;
72117;SDS011;59992;47.490;8.736;2023-05-23T03:03:06;12.70;;;8.00;;
72117;SDS011;59992;47.490;8.736;2023-05-23T03:05:56;13.10;;;8.30;;
72117;SDS011;59992;47.490;8.736;2023-05-23T03:08:46;11.90;;;7.70;;
72117;SDS011;59992;47.490;8.736;2023-05-23T03:11:37;13.30;;;8.80;;
72117;SDS011;59992;47.490;8.736;2023-05-23T03:14:27;11.40;;;7.80;;
72117;SDS011;59992;47.490;8.736;2023-05-23T03:17:17;13.20;;;8.40;;
72117;SDS011;59992;47.490;8.736;2023-05-23T03:20:07;11.90;;;7.60;;
72117;SDS011;59992;47.490;8.736;2023-05-23T03:22:58;14.70;;;8.40;;
72117;SDS011;59992;47.490;8.736;2023-05-23T03:25:48;14.70;;;8.70;;
72117;SDS011;59992;47.490;8.736;2023-05-23T03:28:38;12.50;;;7.90;;
72117;SDS011;59992;47.490;8.736;2023-05-23T03:31:29;14.20;;;8.00;;
72117;SDS011;59992;47.490;8.736;2023-05-23T03:34:19;13.20;;;7.60;;
72117;SDS011;59992;47.490;8.736;2023-05-23T03:37:11;12.60;;;7.80;;
72117;SDS011;59992;47.490;8.736;2023-05-23T03:40:02;11.50;;;7.50;;
72117;SDS011;59992;47.490;8.736;2023-05-23T03:45:57;11.60;;;7.80;;
72117;SDS011;59992;47.490;8.736;2023-05-23T03:48:47;13.50;;;7.60;;
72117;SDS011;59992;47.490;8.736;2023-05-23T03:51:37;11.80;;;7.30;;
72117;SDS011;59992;47.490;8.736;2023-05-23T03:54:27;12.20;;;8.00;;
72117;SDS011;59992;47.490;8.736;2023-05-23T03:57:17;12.70;;;8.10;;
72117;SDS011;59992;47.490;8.736;2023-05-23T04:00:09;11.20;;;7.80;;
72117;SDS011;59992;47.490;8.736;2023-05-23T04:03:00;13.20;;;8.80;;
72117;SDS011;59992;47.490;8.736;2023-05-23T04:05:50;13.40;;;8.20;;
72117;SDS011;59992;47.490;8.736;2023-05-23T04:08:40;11.80;;;8.20;;
72117;SDS011;59992;47.490;8.736;2023-05-23T04:11:31;12.00;;;7.80;;
72117;SDS011;59992;47.490;8.736;2023-05-23T04:14:21;12.00;;;7.70;;
72117;SDS011;59992;47.490;8.736;2023-05-23T04:17:12;12.20;;;8.00;;
72117;SDS011;59992;47.490;8.736;2023-05-23T04:20:02;11.30;;;7.70;;
72117;SDS011;59992;47.490;8.736;2023-05-23T04:22:54;15.10;;;7.90;;
72117;SDS011;59992;47.490;8.736;2023-05-23T04:25:44;13.20;;;8.40;;
72117;SDS011;59992;47.490;8.736;2023-05-23T04:28:35;12.10;;;8.80;;
72117;SDS011;59992;47.490;8.736;2023-05-23T04:31:26;14.00;;;8.10;;
72117;SDS011;59992;47.490;8.736;2023-05-23T04:34:16;12.90;;;8.10;;
72117;SDS011;59992;47.490;8.736;2023-05-23T04:37:08;15.50;;;9.00;;
72117;SDS011;59992;47.490;8.736;2023-05-23T04:39:59;12.80;;;8.10;;
72117;SDS011;59992;47.490;8.736;2023-05-23T04:42:50;11.20;;;7.50;;
72117;SDS011;59992;47.490;8.736;2023-05-23T04:45:40;12.60;;;8.00;;
72117;SDS011;59992;47.490;8.736;2023-05-23T04:48:32;12.00;;;7.80;;
72117;SDS011;59992;47.490;8.736;2023-05-23T04:51:23;12.00;;;8.10;;
72117;SDS011;59992;47.490;8.736;2023-05-23T04:54:13;11.40;;;7.70;;
72117;SDS011;59992;47.490;8.736;2023-05-23T04:57:04;11.60;;;7.60;;
72117;SDS011;59992;47.490;8.736;2023-05-23T04:59:54;11.90;;;7.90;;
72117;SDS011;59992;47.490;8.736;2023-05-23T05:02:44;11.80;;;8.40;;
72117;SDS011;59992;47.490;8.736;2023-05-23T05:05:34;11.10;;;7.90;;
72117;SDS011;59992;47.490;8.736;2023-05-23T05:08:24;10.50;;;7.30;;
72117;SDS011;59992;47.490;8.736;2023-05-23T05:11:15;12.70;;;7.70;;
72117;SDS011;59992;47.490;8.736;2023-05-23T05:14:05;11.10;;;7.80;;
72117;SDS011;59992;47.490;8.736;2023-05-23T05:16:55;10.70;;;7.80;;
72117;SDS011;59992;47.490;8.736;2023-05-23T05:19:45;11.60;;;7.20;;
72117;SDS011;59992;47.490;8.736;2023-05-23T05:22:35;12.10;;;7.50;;
72117;SDS011;59992;47.490;8.736;2023-05-23T05:25:27;12.60;;;7.40;;
72117;SDS011;59992;47.490;8.736;2023-05-23T05:28:18;10.00;;;7.40;;
72117;SDS011;59992;47.490;8.736;2023-05-23T05:31:08;11.40;;;7.60;;
72117;SDS011;59992;47.490;8.736;2023-05-23T05:34:01;11.90;;;7.90;;
72117;SDS011;59992;47.490;8.736;2023-05-23T05:36:51;11.80;;;8.00;;
72117;SDS011;59992;47.490;8.736;2023-05-23T05:39:42;11.10;;;6.90;;
72117;SDS011;59992;47.490;8.736;2023-05-23T05:42:32;12.30;;;7.70;;
72117;SDS011;59992;47.490;8.736;2023-05-23T05:45:23;11.40;;;7.20;;
72117;SDS011;59992;47.490;8.736;2023-05-23T05:48:13;11.00;;;6.70;;
72117;SDS011;59992;47.490;8.736;2023-05-23T05:51:03;11.60;;;6.60;;
72117;SDS011;59992;47.490;8.736;2023-05-23T05:53:53;11.10;;;6.70;;
72117;SDS011;59992;47.490;8.736;2023-05-23T05:56:43;10.60;;;7.50;;
72117;SDS011;59992;47.490;8.736;2023-05-23T05:59:33;10.80;;;7.30;;
72117;SDS011;59992;47.490;8.736;2023-05-23T06:02:24;10.20;;;7.10;;
72117;SDS011;59992;47.490;8.736;2023-05-23T06:05:14;10.20;;;7.30;;
72117;SDS011;59992;47.490;8.736;2023-05-23T06:08:05;13.20;;;7.50;;
72117;SDS011;59992;47.490;8.736;2023-05-23T06:10:55;12.90;;;6.90;;
72117;SDS011;59992;47.490;8.736;2023-05-23T06:13:45;11.20;;;7.00;;
72117;SDS011;59992;47.490;8.736;2023-05-23T06:16:35;13.30;;;7.40;;
72117;SDS011;59992;47.490;8.736;2023-05-23T06:19:25;9.70;;;6.50;;
72117;SDS011;59992;47.490;8.736;2023-05-23T06:22:16;11.50;;;6.90;;
72117;SDS011;59992;47.490;8.736;2023-05-23T06:25:07;8.70;;;6.90;;
72117;SDS011;59992;47.490;8.736;2023-05-23T06:27:58;9.00;;;7.10;;
72117;SDS011;59992;47.490;8.736;2023-05-23T06:30:48;9.00;;;6.70;;
72117;SDS011;59992;47.490;8.736;2023-05-23T06:33:38;10.20;;;7.50;;
72117;SDS011;59992;47.490;8.736;2023-05-23T06:36:29;9.40;;;7.40;;
72117;SDS011;59992;47.490;8.736;2023-05-23T06:39:19;10.60;;;7.50;;
72117;SDS011;59992;47.490;8.736;2023-05-23T06:42:09;12.50;;;7.70;;
72117;SDS011;59992;47.490;8.736;2023-05-23T06:45:00;10.40;;;7.20;;
72117;SDS011;59992;47.490;8.736;2023-05-23T06:47:50;11.30;;;8.20;;
72117;SDS011;59992;47.490;8.736;2023-05-23T06:50:40;11.20;;;7.80;;
72117;SDS011;59992;47.490;8.736;2023-05-23T06:53:30;11.10;;;8.30;;
72117;SDS011;59992;47.490;8.736;2023-05-23T06:56:21;11.50;;;8.70;;
72117;SDS011;59992;47.490;8.736;2023-05-23T06:59:11;11.10;;;8.10;;
72117;SDS011;59992;47.490;8.736;2023-05-23T07:02:01;12.70;;;8.30;;
72117;SDS011;59992;47.490;8.736;2023-05-23T07:04:52;11.60;;;9.10;;
72117;SDS011;59992;47.490;8.736;2023-05-23T07:07:42;12.50;;;8.90;;
72117;SDS011;59992;47.490;8.736;2023-05-23T07:10:32;14.30;;;8.90;;
72117;SDS011;59992;47.490;8.736;2023-05-23T07:13:22;12.40;;;9.00;;
72117;SDS011;59992;47.490;8.736;2023-05-23T07:16:12;14.70;;;9.30;;
72117;SDS011;59992;47.490;8.736;2023-05-23T07:19:03;13.60;;;9.60;;
72117;SDS011;59992;47.490;8.736;2023-05-23T07:21:53;16.40;;;9.30;;
72117;SDS011;59992;47.490;8.736;2023-05-23T07:24:43;13.10;;;9.60;;
72117;SDS011;59992;47.490;8.736;2023-05-23T07:27:33;12.60;;;9.60;;
72117;SDS011;59992;47.490;8.736;2023-05-23T07:30:23;13.50;;;9.40;;
72117;SDS011;59992;47.490;8.736;2023-05-23T07:33:13;14.20;;;9.70;;
72117;SDS011;59992;47.490;8.736;2023-05-23T07:36:04;14.50;;;9.90;;
72117;SDS011;59992;47.490;8.736;2023-05-23T07:38:55;14.60;;;10.60;;
72117;SDS011;59992;47.490;8.736;2023-05-23T07:41:46;13.50;;;10.10;;
72117;SDS011;59992;47.490;8.736;2023-05-23T07:44:36;15.30;;;10.50;;
72117;SDS011;59992;47.490;8.736;2023-05-23T07:47:28;17.10;;;11.30;;
72117;SDS011;59992;47.490;8.736;2023-05-23T07:50:19;16.10;;;11.00;;
72117;SDS011;59992;47.490;8.736;2023-05-23T07:53:09;16.30;;;10.90;;
72117;SDS011;59992;47.490;8.736;2023-05-23T07:55:58;16.10;;;11.00;;
72117;SDS011;59992;47.490;8.736;2023-05-23T07:58:48;16.70;;;10.30;;
72117;SDS011;59992;47.490;8.736;2023-05-23T08:01:39;15.30;;;10.60;;
72117;SDS011;59992;47.490;8.736;2023-05-23T08:04:31;16.60;;;11.20;;
72117;SDS011;59992;47.490;8.736;2023-05-23T08:07:21;15.30;;;10.00;;
72117;SDS011;59992;47.490;8.736;2023-05-23T08:10:11;15.30;;;10.00;;
72117;SDS011;59992;47.490;8.736;2023-05-23T08:13:01;17.00;;;12.10;;
72117;SDS011;59992;47.490;8.736;2023-05-23T08:15:53;17.90;;;11.20;;
72117;SDS011;59992;47.490;8.736;2023-05-23T08:18:43;15.50;;;11.10;;
72117;SDS011;59992;47.490;8.736;2023-05-23T08:21:33;16.70;;;10.90;;
72117;SDS011;59992;47.490;8.736;2023-05-23T08:24:23;14.60;;;10.20;;
72117;SDS011;59992;47.490;8.736;2023-05-23T08:27:16;16.50;;;10.30;;
72117;SDS011;59992;47.490;8.736;2023-05-23T08:30:07;15.90;;;10.20;;
72117;SDS011;59992;47.490;8.736;2023-05-23T08:32:58;14.10;;;10.60;;
72117;SDS011;59992;47.490;8.736;2023-05-23T08:35:50;14.60;;;10.30;;
72117;SDS011;59992;47.490;8.736;2023-05-23T08:38:41;17.20;;;11.00;;
72117;SDS011;59992;47.490;8.736;2023-05-23T08:41:31;17.00;;;11.70;;
72117;SDS011;59992;47.490;8.736;2023-05-23T08:44:22;18.90;;;12.10;;
72117;SDS011;59992;47.490;8.736;2023-05-23T08:47:12;16.10;;;11.10;;
72117;SDS011;59992;47.490;8.736;2023-05-23T08:50:07;18.00;;;11.50;;
72117;SDS011;59992;47.490;8.736;2023-05-23T08:53:00;13.80;;;10.40;;
72117;SDS011;59992;47.490;8.736;2023-05-23T08:55:55;15.80;;;11.20;;
72117;SDS011;59992;47.490;8.736;2023-05-23T08:58:48;19.50;;;12.10;;
72117;SDS011;59992;47.490;8.736;2023-05-23T09:01:40;17.40;;;11.40;;
72117;SDS011;59992;47.490;8.736;2023-05-23T09:04:33;19.10;;;12.20;;
72117;SDS011;59992;47.490;8.736;2023-05-23T09:07:23;19.80;;;12.90;;
72117;SDS011;59992;47.490;8.736;2023-05-23T09:10:14;16.50;;;11.10;;
72117;SDS011;59992;47.490;8.736;2023-05-23T09:13:07;19.20;;;12.10;;
72117;SDS011;59992;47.490;8.736;2023-05-23T09:16:01;21.50;;;11.50;;
72117;SDS011;59992;47.490;8.736;2023-05-23T09:18:53;18.70;;;12.30;;
72117;SDS011;59992;47.490;8.736;2023-05-23T09:21:44;17.70;;;12.60;;
72117;SDS011;59992;47.490;8.736;2023-05-23T09:24:34;25.40;;;13.00;;
72117;SDS011;59992;47.490;8.736;2023-05-23T09:27:24;21.00;;;12.60;;
72117;SDS011;59992;47.490;8.736;2023-05-23T09:30:15;21.80;;;13.10;;
72117;SDS011;59992;47.490;8.736;2023-05-23T09:33:06;17.50;;;12.70;;
72117;SDS011;59992;47.490;8.736;2023-05-23T09:35:56;20.80;;;13.20;;
72117;SDS011;59992;47.490;8.736;2023-05-23T09:38:46;21.50;;;13.30;;
72117;SDS011;59992;47.490;8.736;2023-05-23T09:41:40;20.70;;;13.50;;
72117;SDS011;59992;47.490;8.736;2023-05-23T09:44:30;19.70;;;12.70;;
72117;SDS011;59992;47.490;8.736;2023-05-23T09:47:32;17.80;;;13.20;;
72117;SDS011;59992;47.490;8.736;2023-05-23T09:50:23;19.60;;;13.20;;
72117;SDS011;59992;47.490;8.736;2023-05-23T09:53:17;17.40;;;11.80;;
72117;SDS011;59992;47.490;8.736;2023-05-23T09:56:08;19.40;;;14.10;;
72117;SDS011;59992;47.490;8.736;2023-05-23T09:58:59;19.00;;;12.70;;
72117;SDS011;59992;47.490;8.736;2023-05-23T10:01:49;17.70;;;11.20;;
72117;SDS011;59992;47.490;8.736;2023-05-23T10:04:43;16.40;;;11.00;;
72117;SDS011;59992;47.490;8.736;2023-05-23T10:07:35;17.40;;;11.30;;
72117;SDS011;59992;47.490;8.736;2023-05-23T10:10:26;16.50;;;12.30;;
72117;SDS011;59992;47.490;8.736;2023-05-23T10:13:19;18.20;;;13.20;;
72117;SDS011;59992;47.490;8.736;2023-05-23T10:16:13;15.10;;;10.90;;
72117;SDS011;59992;47.490;8.736;2023-05-23T10:19:09;18.90;;;11.60;;
72117;SDS011;59992;47.490;8.736;2023-05-23T10:22:05;16.40;;;10.50;;
72117;SDS011;59992;47.490;8.736;2023-05-23T10:24:57;14.20;;;9.60;;
72117;SDS011;59992;47.490;8.736;2023-05-23T10:27:47;17.30;;;11.10;;
72117;SDS011;59992;47.490;8.736;2023-05-23T10:30:45;13.50;;;9.60;;
72117;SDS011;59992;47.490;8.736;2023-05-23T10:33:37;12.80;;;9.00;;
72117;SDS011;59992;47.490;8.736;2023-05-23T10:36:33;13.60;;;8.70;;
72117;SDS011;59992;47.490;8.736;2023-05-23T10:39:40;15.60;;;10.70;;
72117;SDS011;59992;47.490;8.736;2023-05-23T10:42:44;16.50;;;10.70;;
72117;SDS011;59992;47.490;8.736;2023-05-23T10:45:41;14.60;;;10.50;;
72117;SDS011;59992;47.490;8.736;2023-05-23T10:48:33;12.70;;;9.50;;
72117;SDS011;59992;47.490;8.736;2023-05-23T10:51:30;14.20;;;8.80;;
72117;SDS011;59992;47.490;8.736;2023-05-23T10:54:28;11.80;;;8.10;;
72117;SDS011;59992;47.490;8.736;2023-05-23T10:57:28;17.20;;;9.70;;
72117;SDS011;59992;47.490;8.736;2023-05-23T11:00:19;13.50;;;9.50;;
72117;SDS011;59992;47.490;8.736;2023-05-23T11:03:12;14.30;;;9.10;;
72117;SDS011;59992;47.490;8.736;2023-05-23T11:06:04;14.20;;;9.00;;
72117;SDS011;59992;47.490;8.736;2023-05-23T11:09:00;12.40;;;8.40;;
72117;SDS011;59992;47.490;8.736;2023-05-23T11:11:52;14.20;;;9.70;;
72117;SDS011;59992;47.490;8.736;2023-05-23T11:14:53;14.90;;;9.70;;
72117;SDS011;59992;47.490;8.736;2023-05-23T11:17:54;13.20;;;8.70;;
72117;SDS011;59992;47.490;8.736;2023-05-23T11:20:44;15.10;;;8.20;;
72117;SDS011;59992;47.490;8.736;2023-05-23T11:23:41;16.40;;;9.10;;
72117;SDS011;59992;47.490;8.736;2023-05-23T11:26:31;13.00;;;8.80;;
72117;SDS011;59992;47.490;8.736;2023-05-23T11:29:21;13.40;;;9.10;;
72117;SDS011;59992;47.490;8.736;2023-05-23T11:32:12;13.60;;;9.40;;
72117;SDS011;59992;47.490;8.736;2023-05-23T11:35:02;12.90;;;8.80;;
72117;SDS011;59992;47.490;8.736;2023-05-23T11:37:54;13.50;;;8.30;;
72117;SDS011;59992;47.490;8.736;2023-05-23T11:40:45;13.10;;;8.70;;
72117;SDS011;59992;47.490;8.736;2023-05-23T11:43:35;13.40;;;9.10;;
72117;SDS011;59992;47.490;8.736;2023-05-23T11:46:48;12.70;;;9.40;;
72117;SDS011;59992;47.490;8.736;2023-05-23T11:49:49;13.80;;;8.90;;
72117;SDS011;59992;47.490;8.736;2023-05-23T11:52:42;14.00;;;8.40;;
72117;SDS011;59992;47.490;8.736;2023-05-23T11:55:46;15.10;;;9.70;;
72117;SDS011;59992;47.490;8.736;2023-05-23T11:58:49;14.50;;;8.90;;
72117;SDS011;59992;47.490;8.736;2023-05-23T12:01:39;12.90;;;8.30;;
72117;SDS011;59992;47.490;8.736;2023-05-23T12:04:30;15.70;;;9.80;;
72117;SDS011;59992;47.490;8.736;2023-05-23T12:07:21;13.40;;;9.10;;
72117;SDS011;59992;47.490;8.736;2023-05-23T12:10:11;13.10;;;9.50;;
72117;SDS011;59992;47.490;8.736;2023-05-23T12:13:03;13.40;;;8.60;;
72117;SDS011;59992;47.490;8.736;2023-05-23T12:15:55;11.10;;;6.70;;
72117;SDS011;59992;47.490;8.736;2023-05-23T12:18:46;13.00;;;6.80;;
72117;SDS011;59992;47.490;8.736;2023-05-23T12:21:43;8.60;;;5.90;;
72117;SDS011;59992;47.490;8.736;2023-05-23T12:24:35;7.10;;;3.90;;
72117;SDS011;59992;47.490;8.736;2023-05-23T12:27:33;7.70;;;4.20;;
72117;SDS011;59992;47.490;8.736;2023-05-23T12:30:24;7.80;;;3.30;;
72117;SDS011;59992;47.490;8.736;2023-05-23T12:33:14;5.00;;;3.20;;
72117;SDS011;59992;47.490;8.736;2023-05-23T12:36:07;5.40;;;3.10;;
72117;SDS011;59992;47.490;8.736;2023-05-23T12:39:03;5.40;;;2.90;;
72117;SDS011;59992;47.490;8.736;2023-05-23T12:41:55;7.30;;;3.30;;
72117;SDS011;59992;47.490;8.736;2023-05-23T12:44:56;5.10;;;3.10;;
72117;SDS011;59992;47.490;8.736;2023-05-23T12:47:47;4.80;;;2.50;;
72117;SDS011;59992;47.490;8.736;2023-05-23T12:50:37;4.40;;;2.30;;
72117;SDS011;59992;47.490;8.736;2023-05-23T12:53:28;4.10;;;2.40;;
72117;SDS011;59992;47.490;8.736;2023-05-23T12:56:19;6.60;;;2.50;;
72117;SDS011;59992;47.490;8.736;2023-05-23T12:59:09;5.10;;;3.00;;
72117;SDS011;59992;47.490;8.736;2023-05-23T13:02:00;5.00;;;2.80;;
72117;SDS011;59992;47.490;8.736;2023-05-23T13:04:50;4.20;;;2.60;;
72117;SDS011;59992;47.490;8.736;2023-05-23T13:07:40;6.50;;;2.90;;
72117;SDS011;59992;47.490;8.736;2023-05-23T13:10:31;7.20;;;3.70;;
72117;SDS011;59992;47.490;8.736;2023-05-23T13:13:22;6.90;;;3.80;;
72117;SDS011;59992;47.490;8.736;2023-05-23T13:16:12;6.90;;;4.20;;
72117;SDS011;59992;47.490;8.736;2023-05-23T13:19:02;6.60;;;3.70;;
72117;SDS011;59992;47.490;8.736;2023-05-23T13:21:53;5.10;;;3.30;;
72117;SDS011;59992;47.490;8.736;2023-05-23T13:24:43;7.00;;;3.30;;
72117;SDS011;59992;47.490;8.736;2023-05-23T13:27:33;7.10;;;3.40;;
72117;SDS011;59992;47.490;8.736;2023-05-23T13:30:23;6.10;;;3.70;;
72117;SDS011;59992;47.490;8.736;2023-05-23T13:33:14;6.60;;;3.40;;
72117;SDS011;59992;47.490;8.736;2023-05-23T13:36:05;6.60;;;3.80;;
72117;SDS011;59992;47.490;8.736;2023-05-23T13:38:55;7.00;;;3.90;;
72117;SDS011;59992;47.490;8.736;2023-05-23T13:41:45;6.20;;;3.40;;
72117;SDS011;59992;47.490;8.736;2023-05-23T13:44:35;6.80;;;3.40;;
72117;SDS011;59992;47.490;8.736;2023-05-23T13:47:26;5.50;;;3.40;;
72117;SDS011;59992;47.490;8.736;2023-05-23T13:50:16;6.60;;;4.20;;
72117;SDS011;59992;47.490;8.736;2023-05-23T13:53:07;9.50;;;4.80;;
72117;SDS011;59992;47.490;8.736;2023-05-23T13:56:01;7.40;;;4.10;;
72117;SDS011;59992;47.490;8.736;2023-05-23T13:58:51;9.30;;;4.20;;
72117;SDS011;59992;47.490;8.736;2023-05-23T14:01:42;8.70;;;5.00;;
72117;SDS011;59992;47.490;8.736;2023-05-23T14:04:32;7.40;;;5.00;;
72117;SDS011;59992;47.490;8.736;2023-05-23T14:07:22;9.50;;;6.20;;
72117;SDS011;59992;47.490;8.736;2023-05-23T14:10:13;9.80;;;6.00;;
72117;SDS011;59992;47.490;8.736;2023-05-23T14:13:04;10.20;;;5.80;;
72117;SDS011;59992;47.490;8.736;2023-05-23T14:15:55;9.30;;;6.00;;
72117;SDS011;59992;47.490;8.736;2023-05-23T14:18:45;8.70;;;5.60;;
72117;SDS011;59992;47.490;8.736;2023-05-23T14:21:35;10.60;;;7.30;;
72117;SDS011;59992;47.490;8.736;2023-05-23T14:24:25;12.50;;;7.90;;
72117;SDS011;59992;47.490;8.736;2023-05-23T14:27:15;11.20;;;8.10;;
72117;SDS011;59992;47.490;8.736;2023-05-23T14:30:07;12.60;;;8.50;;
72117;SDS011;59992;47.490;8.736;2023-05-23T14:32:58;14.20;;;8.60;;
72117;SDS011;59992;47.490;8.736;2023-05-23T14:35:48;12.80;;;8.40;;
72117;SDS011;59992;47.490;8.736;2023-05-23T14:38:39;12.50;;;8.60;;
72117;SDS011;59992;47.490;8.736;2023-05-23T14:41:31;11.40;;;7.90;;
72117;SDS011;59992;47.490;8.736;2023-05-23T14:44:22;15.00;;;9.10;;
72117;SDS011;59992;47.490;8.736;2023-05-23T14:47:12;13.10;;;8.80;;
72117;SDS011;59992;47.490;8.736;2023-05-23T14:50:02;14.70;;;9.90;;
72117;SDS011;59992;47.490;8.736;2023-05-23T14:52:54;16.00;;;10.20;;
72117;SDS011;59992;47.490;8.736;2023-05-23T14:55:44;16.70;;;11.30;;
72117;SDS011;59992;47.490;8.736;2023-05-23T14:58:34;15.10;;;9.80;;
72117;SDS011;59992;47.490;8.736;2023-05-23T15:01:26;14.50;;;10.60;;
72117;SDS011;59992;47.490;8.736;2023-05-23T15:04:16;15.00;;;10.20;;
72117;SDS011;59992;47.490;8.736;2023-05-23T15:07:07;13.60;;;9.20;;
72117;SDS011;59992;47.490;8.736;2023-05-23T15:09:57;12.20;;;8.50;;
72117;SDS011;59992;47.490;8.736;2023-05-23T15:12:48;12.80;;;8.40;;
72117;SDS011;59992;47.490;8.736;2023-05-23T15:15:39;12.30;;;8.20;;
72117;SDS011;59992;47.490;8.736;2023-05-23T15:18:29;11.40;;;7.80;;
72117;SDS011;59992;47.490;8.736;2023-05-23T15:21:20;13.80;;;8.50;;
72117;SDS011;59992;47.490;8.736;2023-05-23T15:24:09;12.50;;;8.10;;
72117;SDS011;59992;47.490;8.736;2023-05-23T15:27:00;13.20;;;9.10;;
72117;SDS011;59992;47.490;8.736;2023-05-23T15:29:50;13.20;;;9.30;;
72117;SDS011;59992;47.490;8.736;2023-05-23T15:32:40;13.80;;;10.10;;
72117;SDS011;59992;47.490;8.736;2023-05-23T15:35:32;16.10;;;9.80;;
72117;SDS011;59992;47.490;8.736;2023-05-23T15:38:22;15.00;;;10.20;;
72117;SDS011;59992;47.490;8.736;2023-05-23T15:41:12;13.80;;;10.10;;
72117;SDS011;59992;47.490;8.736;2023-05-23T15:44:03;15.60;;;10.40;;
72117;SDS011;59992;47.490;8.736;2023-05-23T15:46:53;14.10;;;10.40;;
72117;SDS011;59992;47.490;8.736;2023-05-23T15:49:44;16.10;;;10.30;;
72117;SDS011;59992;47.490;8.736;2023-05-23T15:52:34;16.00;;;10.50;;
72117;SDS011;59992;47.490;8.736;2023-05-23T15:55:24;16.30;;;10.50;;
72117;SDS011;59992;47.490;8.736;2023-05-23T15:58:14;15.30;;;10.10;;
72117;SDS011;59992;47.490;8.736;2023-05-23T16:01:04;14.60;;;10.50;;
72117;SDS011;59992;47.490;8.736;2023-05-23T16:03:54;15.80;;;10.50;;
72117;SDS011;59992;47.490;8.736;2023-05-23T16:06:44;14.30;;;9.10;;
72117;SDS011;59992;47.490;8.736;2023-05-23T16:09:34;13.50;;;9.70;;
72117;SDS011;59992;47.490;8.736;2023-05-23T16:12:24;14.20;;;9.90;;
72117;SDS011;59992;47.490;8.736;2023-05-23T16:15:14;14.70;;;9.80;;
72117;SDS011;59992;47.490;8.736;2023-05-23T16:18:04;13.90;;;9.90;;
72117;SDS011;59992;47.490;8.736;2023-05-23T16:20:54;14.50;;;10.10;;
72117;SDS011;59992;47.490;8.736;2023-05-23T16:23:44;16.90;;;12.00;;
72117;SDS011;59992;47.490;8.736;2023-05-23T16:26:35;17.90;;;12.70;;
72117;SDS011;59992;47.490;8.736;2023-05-23T16:29:26;17.20;;;11.90;;
72117;SDS011;59992;47.490;8.736;2023-05-23T16:32:16;16.30;;;12.00;;
72117;SDS011;59992;47.490;8.736;2023-05-23T16:35:07;17.40;;;12.10;;
72117;SDS011;59992;47.490;8.736;2023-05-23T16:37:58;18.30;;;12.30;;
72117;SDS011;59992;47.490;8.736;2023-05-23T16:40:48;17.80;;;11.30;;
72117;SDS011;59992;47.490;8.736;2023-05-23T16:43:38;15.90;;;12.30;;
72117;SDS011;59992;47.490;8.736;2023-05-23T16:46:30;20.10;;;13.30;;
72117;SDS011;59992;47.490;8.736;2023-05-23T16:49:21;15.90;;;11.80;;
72117;SDS011;59992;47.490;8.736;2023-05-23T16:52:12;18.00;;;12.50;;
72117;SDS011;59992;47.490;8.736;2023-05-23T16:55:05;17.20;;;11.40;;
72117;SDS011;59992;47.490;8.736;2023-05-23T16:57:55;21.20;;;12.50;;
72117;SDS011;59992;47.490;8.736;2023-05-23T17:00:46;17.60;;;12.50;;